Time;durP1;ratioP1;P1;durP2;ratioP2;P2;SDS_P1;SDS_P2;PMS_P1;PMS_P2;Temp;Humidity;BMP_temperature;BMP_pressure;BME280_temperature;BME280_humidity;BME280_pressure;Samples;Min_cycle;Max_cycle;Signal;HPM_P1;HPM_P2
2022/06/05 00:02:01;;;;;;;6.35;3.80;;;;;;;25.53;58.25;101443.09;5065270;28;19923;-81
2022/06/05 00:04:57;;;;;;;6.13;4.10;;;;;;;25.51;58.30;101431.50;5063447;28;20028;-82
2022/06/05 00:07:39;;;;;;;5.32;4.15;;;;;;;25.50;58.35;101424.34;5064401;28;20126;-81
2022/06/05 00:10:18;;;;;;;6.68;4.20;;;;;;;25.47;58.16;101414.53;5061932;28;20044;-82
2022/06/05 00:12:56;;;;;;;6.78;4.00;;;;;;;25.49;58.40;101409.22;5082877;28;20021;-81
2022/06/05 00:15:22;;;;;;;6.32;4.13;;;;;;;25.47;57.99;101410.97;5068490;28;20089;-82
2022/06/05 00:17:47;;;;;;;;;;;;;;;25.49;58.51;101399.41;5069663;28;20048;-81
2022/06/05 00:20:13;;;;;;;6.72;4.15;;;;;;;25.39;58.40;101401.13;5077150;28;19916;-81
2022/06/05 00:22:39;;;;;;;6.70;4.10;;;;;;;25.38;58.24;101393.13;5084146;28;20428;-81
2022/06/05 00:25:06;;;;;;;;;;;;;;;25.47;58.20;101401.16;5058573;28;20028;-82
2022/06/05 00:27:38;;;;;;;4.90;3.78;;;;;;;25.43;58.24;101393.13;5074230;28;20184;-82
2022/06/05 00:30:11;;;;;;;5.65;3.97;;;;;;;25.38;58.29;101387.78;5080938;28;20074;-81
2022/06/05 00:32:41;;;;;;;4.57;4.00;;;;;;;25.43;58.39;101390.47;5068287;28;20059;-82
2022/06/05 00:35:11;;;;;;;5.10;3.80;;;;;;;25.39;58.18;101385.09;5068645;28;20036;-82
2022/06/05 00:38:12;;;;;;;6.40;4.18;;;;;;;25.39;58.64;101385.09;5070325;28;20017;-82
2022/06/05 00:40:52;;;;;;;5.65;3.75;;;;;;;25.36;58.49;101376.19;5061231;28;20103;-81
2022/06/05 00:43:19;;;;;;;5.10;3.90;;;;;;;25.31;57.93;101356.56;5062630;28;20083;-81
2022/06/05 00:45:45;;;;;;;6.78;4.15;;;;;;;25.36;57.86;101371.72;5062694;28;20028;-81
2022/06/05 00:48:10;;;;;;;;;;;;;;;25.43;57.90;101366.41;5076811;28;20039;-81
2022/06/05 00:50:37;;;;;;;4.90;4.05;;;;;;;25.34;57.84;101362.81;5083723;28;20308;-81
2022/06/05 00:53:05;;;;;;;5.15;4.20;;;;;;;25.25;57.97;101344.09;5072192;28;20035;-81
2022/06/05 00:55:40;;;;;;;6.13;4.03;;;;;;;25.31;57.88;101351.22;5066290;28;20031;-81
2022/06/05 00:58:06;;;;;;;4.78;3.65;;;;;;;25.26;57.84;101344.97;5073391;28;20040;-81
2022/06/05 01:00:42;;;;;;;5.00;3.83;;;;;;;25.29;58.33;101359.22;5064725;28;20020;-81
2022/06/05 01:03:09;;;;;;;5.40;4.00;;;;;;;25.28;58.28;101362.78;5070843;28;20025;-81
2022/06/05 01:05:36;;;;;;;6.22;3.92;;;;;;;25.29;58.14;101356.53;5072311;28;20386;-81
2022/06/05 01:08:02;;;;;;;7.07;4.20;;;;;;;25.27;57.95;101358.31;5063433;28;20115;-81
2022/06/05 01:10:39;;;;;;;4.78;4.22;;;;;;;25.30;58.33;101353.00;5063407;28;20027;-81
2022/06/05 01:13:16;;;;;;;5.72;4.03;;;;;;;25.28;57.74;101353.88;5063299;28;20159;-81
2022/06/05 01:16:13;;;;;;;4.72;4.15;;;;;;;25.26;58.31;101350.31;5070994;28;20041;-81
2022/06/05 01:19:06;;;;;;;5.57;4.10;;;;;;;25.26;58.38;101347.66;5057239;28;20089;-81
2022/06/05 01:21:32;;;;;;;5.40;4.03;;;;;;;25.25;57.86;101344.09;5079600;28;20100;-81
2022/06/05 01:24:13;;;;;;;6.00;3.80;;;;;;;25.24;58.36;101346.75;5069658;28;20040;-81
2022/06/05 01:26:48;;;;;;;4.40;3.92;;;;;;;25.18;58.02;101339.56;5075059;28;20024;-81
2022/06/05 01:29:25;;;;;;;5.53;4.15;;;;;;;25.20;58.24;101337.81;5079435;28;20494;-81
2022/06/05 01:32:17;;;;;;;5.35;4.13;;;;;;;25.16;58.20;101334.19;5087525;28;20027;-81
2022/06/05 01:34:51;;;;;;;4.95;4.32;;;;;;;25.21;58.42;101336.94;5078376;28;20036;-81
2022/06/05 01:37:35;;;;;;;7.07;4.20;;;;;;;24.98;58.35;101296.75;5073901;28;20493;-81
2022/06/05 01:40:06;;;;;;;5.82;4.28;;;;;;;25.17;58.15;101329.78;5077582;28;20021;-81
2022/06/05 01:42:36;;;;;;;5.72;4.00;;;;;;;25.10;57.95;101320.81;5077630;28;20110;-81
2022/06/05 01:45:07;;;;;;;5.13;4.15;;;;;;;25.07;58.11;101319.94;5070401;28;20493;-81
2022/06/05 01:47:37;;;;;;;7.45;4.30;;;;;;;25.09;58.44;101321.72;5082013;28;20024;-81
2022/06/05 01:50:12;;;;;;;5.10;4.30;;;;;;;25.16;58.11;101322.63;5072925;28;20024;-81
2022/06/05 01:52:47;;;;;;;6.38;3.75;;;;;;;25.14;58.50;101335.09;5064218;28;20035;-81
2022/06/05 01:55:16;;;;;;;5.43;3.92;;;;;;;25.13;58.27;101327.97;5067369;28;20078;-81
2022/06/05 01:57:42;;;;;;;4.80;3.92;;;;;;;25.12;58.11;101324.38;5073106;28;20115;-80
2022/06/05 02:00:12;;;;;;;;;;;;;;;25.16;58.32;101320.84;5081556;28;20107;-82
2022/06/05 02:02:57;;;;;;;4.88;4.15;;;;;;;25.10;58.22;101317.25;5085318;28;19916;-81
2022/06/05 02:05:27;;;;;;;6.43;4.18;;;;;;;25.04;58.46;101309.22;5053701;28;20082;-81
2022/06/05 02:07:58;;;;;;;5.93;4.05;;;;;;;25.07;58.21;101320.81;5061109;28;20028;-81
2022/06/05 02:10:28;;;;;;;6.82;4.13;;;;;;;25.05;58.13;101327.06;5068878;28;20028;-81
2022/06/05 02:12:54;;;;;;;5.75;4.10;;;;;;;24.96;57.96;101299.41;5081182;28;20016;-81
2022/06/05 02:15:20;;;;;;;5.78;4.20;;;;;;;25.05;58.14;101322.59;5059170;28;20037;-81
2022/06/05 02:17:46;;;;;;;6.63;4.32;;;;;;;24.98;58.39;101323.47;5082787;28;20030;-81
2022/06/05 02:20:11;;;;;;;;;;;;;;;25.10;58.27;101328.84;5066542;28;20023;-81
2022/06/05 02:23:00;;;;;;;6.22;4.05;;;;;;;25.05;58.12;101325.28;5068092;28;19916;-81
2022/06/05 02:25:26;;;;;;;6.03;4.20;;;;;;;25.03;57.93;101320.81;5081064;28;20660;-81
2022/06/05 02:27:56;;;;;;;;;;;;;;;25.08;58.15;101321.72;5085990;28;20019;-81
2022/06/05 02:30:22;;;;;;;6.35;4.03;;;;;;;25.01;58.34;101319.91;5076503;28;20316;-81
2022/06/05 02:32:53;;;;;;;;;;;;;;;25.05;58.23;101314.56;5073263;28;20024;-81
2022/06/05 02:35:27;;;;;;;5.13;4.05;;;;;;;24.99;58.26;101315.44;5083597;28;19913;-81
2022/06/05 02:38:10;;;;;;;5.45;4.28;;;;;;;24.99;58.41;101323.44;5081339;28;20048;-81
2022/06/05 02:40:42;;;;;;;5.57;3.95;;;;;;;24.98;58.20;101321.69;5080177;28;20024;-81
2022/06/05 02:43:21;;;;;;;6.78;4.65;;;;;;;24.96;58.54;101323.47;5069751;28;20062;-82
2022/06/05 02:46:03;;;;;;;5.28;4.20;;;;;;;24.92;58.60;101308.31;5074320;28;20519;-82
2022/06/05 02:48:59;;;;;;;7.72;4.03;;;;;;;24.95;58.46;101327.00;5065510;28;20135;-81
2022/06/05 02:51:34;;;;;;;7.18;4.75;;;;;;;24.86;58.78;101316.28;5078752;28;20342;-81
2022/06/05 02:54:00;;;;;;;6.28;4.32;;;;;;;24.90;58.53;101310.06;5081276;28;20382;-81
2022/06/05 02:56:26;;;;;;;;;;;;;;;24.97;58.34;101322.56;5075431;28;20031;-82
2022/06/05 02:58:54;;;;;;;8.05;4.47;;;;;;;24.93;58.65;101318.13;5070013;28;20400;-81
2022/06/05 03:04:07;;;;;;;8.18;4.63;;;;;;;24.88;58.20;101308.28;5071081;28;20035;-81
2022/06/05 03:06:33;;;;;;;7.38;4.30;;;;;;;24.90;58.39;101311.88;5055579;28;20083;-82
2022/06/05 03:08:59;;;;;;;5.93;4.35;;;;;;;24.89;58.46;101316.31;5076694;28;20107;-81
2022/06/05 03:11:25;;;;;;;;;;;;;;;24.94;58.54;101325.22;5061482;28;20111;-81
2022/06/05 03:13:50;;;;;;;6.72;4.35;;;;;;;24.85;58.42;101321.63;5067328;28;20373;-81
2022/06/05 03:16:16;;;;;;;;;;;;;;;24.88;58.61;101325.22;5077581;28;20130;-82
2022/06/05 03:18:41;;;;;;;5.38;4.40;;;;;;;24.85;58.66;101319.88;5060051;28;19923;-82
2022/06/05 03:21:07;;;;;;;;;;;;;;;24.89;58.84;101324.34;5066245;28;20151;-81
2022/06/05 03:23:33;;;;;;;6.20;4.70;;;;;;;24.83;58.59;101316.28;5080368;28;19963;-81
2022/06/05 03:25:58;;;;;;;;;;;;;;;24.87;58.82;101319.84;5079410;28;20446;-81
2022/06/05 03:28:25;;;;;;;6.15;4.38;;;;;;;24.83;58.68;101321.63;5061855;28;19915;-81
2022/06/05 03:30:51;;;;;;;9.20;4.82;;;;;;;24.80;58.91;101324.28;5071800;28;20062;-81
2022/06/05 03:33:17;;;;;;;;;;;;;;;24.86;58.98;101331.44;5082950;28;20442;-81
2022/06/05 03:35:44;;;;;;;8.18;4.68;;;;;;;24.79;58.96;101320.72;5055924;28;19966;-81
2022/06/05 03:38:11;;;;;;;5.50;4.65;;;;;;;24.69;58.96;101299.31;5086463;28;20485;-81
2022/06/05 03:40:44;;;;;;;6.30;5.00;;;;;;;24.76;59.30;101323.41;5077164;28;20068;-81
2022/06/05 03:43:10;;;;;;;8.93;5.22;;;;;;;24.73;59.10;101314.47;5060319;28;20029;-82
2022/06/05 03:45:36;;;;;;;;;;;;;;;24.82;59.09;101324.28;5064121;28;20081;-81
2022/06/05 03:48:01;;;;;;;7.15;5.28;;;;;;;24.78;58.83;101326.06;5086598;28;19918;-82
2022/06/05 03:50:27;;;;;;;;;;;;;;;24.81;58.86;101312.72;5066674;28;20414;-81
2022/06/05 03:52:52;;;;;;;6.68;5.43;;;;;;;24.68;59.24;101309.09;5074168;28;19912;-81
2022/06/05 03:55:19;;;;;;;;;;;;;;;24.79;59.16;101323.41;5070978;28;20040;-81
2022/06/05 03:57:45;;;;;;;8.02;5.03;;;;;;;24.68;59.17;101309.09;5078480;28;19974;-82
2022/06/05 04:00:11;;;;;;;;;;;;;;;24.76;59.50;101318.06;5080478;28;20031;-82
2022/06/05 04:02:36;;;;;;;;;;;;;;;24.78;59.44;101326.06;5089003;28;19922;-81
2022/06/05 04:05:02;;;;;;;;;;;;;;;24.80;59.20;101310.91;5073882;28;20031;-82
2022/06/05 04:07:28;;;;;;;;;;;;;;;24.84;59.05;101314.50;5084312;28;19909;-82
2022/06/05 04:09:53;;;;;;;;;;;;;;;24.83;58.97;101315.38;5061358;28;19947;-81
2022/06/05 04:12:19;;;;;;;;;;;;;;;24.79;59.53;101315.38;5078549;28;20502;-82
2022/06/05 04:14:44;;;;;;;;;;;;;;;24.82;59.18;101309.16;5068051;28;20357;-82
2022/06/05 04:17:10;;;;;;;;;;;;;;;24.84;59.46;101314.50;5068961;28;20302;-82
2022/06/05 04:19:35;;;;;;;;;;;;;;;24.82;59.77;101300.25;5081315;28;19978;-82
2022/06/05 04:22:01;;;;;;;;;;;;;;;24.84;59.42;101298.47;5073596;28;19967;-82
2022/06/05 04:24:26;;;;;;;;;;;;;;;24.81;59.85;101296.69;5065189;28;19931;-82
2022/06/05 04:26:52;;;;;;;;;;;;;;;24.82;59.56;101298.47;5069748;28;19913;-83
2022/06/05 04:29:17;;;;;;;;;;;;;;;24.82;59.44;101292.25;5072061;28;20390;-83
2022/06/05 04:31:45;;;;;;;;;;;;;;;24.82;59.67;101287.78;5067793;28;19923;-82
2022/06/05 04:34:11;;;;;;;;;;;;;;;24.83;59.59;101289.59;5087780;28;19951;-82
2022/06/05 04:36:38;;;;;;;;;;;;;;;24.83;59.38;101296.69;5055771;28;19912;-82
2022/06/05 04:39:03;;;;;;;;;;;;;;;24.85;59.59;101298.50;5070285;28;19913;-82
2022/06/05 04:41:28;;;;;;;;;;;;;;;24.86;59.57;101310.94;5054950;28;19913;-82
2022/06/05 04:43:54;;;;;;;;;;;;;;;24.86;59.63;101305.59;5068726;28;19908;-82
2022/06/05 04:46:20;;;;;;;;;;;;;;;24.85;59.67;101313.59;5061808;28;19908;-82
2022/06/05 04:48:46;;;;;;;;;;;;;;;24.79;60.11;101323.41;5071905;28;19912;-81
2022/06/05 04:51:15;;;;;;;;;;;;;;;24.81;60.04;101310.06;5071071;28;20394;-82
2022/06/05 04:53:40;;;;;;;;;;;;;;;24.75;60.05;101302.00;5066418;28;19908;-82
2022/06/05 04:56:07;;;;;;;;;;;;;;;24.77;60.24;101306.47;5077262;28;19913;-82
2022/06/05 04:58:33;;;;;;;;;;;;;;;24.74;60.42;101305.56;5063882;28;20003;-82
2022/06/05 05:00:58;;;;;;;;;;;;;;;24.61;60.68;101317.06;5076556;28;20419;-82
2022/06/05 05:03:23;;;;;;;;;;;;;;;24.63;60.67;101317.97;5071649;28;19913;-81
2022/06/05 05:05:49;;;;;;;;;;;;;;;24.63;60.71;101313.53;5063728;28;19935;-82
2022/06/05 05:08:14;;;;;;;;;;;;;;;24.67;60.76;101312.66;5064982;28;20374;-83
2022/06/05 05:10:40;;;;;;;;;;;;;;;24.71;60.46;101317.13;5062960;28;20455;-82
2022/06/05 05:13:05;;;;;;;;;;;;;;;24.72;60.65;101316.25;5071538;28;19922;-81
2022/06/05 05:15:31;;;;;;;;;;;;;;;24.65;60.98;101308.19;5072802;28;20037;-82
2022/06/05 05:17:57;;;;;;;;;;;;;;;24.67;60.94;101311.75;5064901;28;20073;-82
2022/06/05 05:20:23;;;;;;;;;;;;;;;24.65;60.89;101297.50;5064601;28;19965;-82
2022/06/05 05:22:49;;;;;;;;;;;;;;;24.68;61.30;101295.75;5063238;28;20392;-81
2022/06/05 05:25:16;;;;;;;;;;;;;;;24.64;61.23;101291.28;5069580;28;19998;-82
2022/06/05 05:27:41;;;;;;;;;;;;;;;24.58;60.55;101286.78;5067122;28;19908;-81
2022/06/05 05:30:07;;;;;;;;;;;;;;;24.60;59.97;101292.16;5067624;28;20329;-82
2022/06/05 05:32:33;;;;;;;;;;;;;;;24.54;59.48;101286.78;5068006;28;19912;-82
2022/06/05 05:34:58;;;;;;;;;;;;;;;24.43;59.78;101284.03;5072314;28;19908;-82
2022/06/05 05:37:24;;;;;;;;;;;;;;;24.60;59.26;101294.81;5058860;28;19912;-82
2022/06/05 05:42:33;;;;;;;;;;;;;;;24.47;61.20;101300.94;5066173;28;20651;-81
2022/06/05 05:44:59;;;;;;;;;;;;;;;24.56;61.05;101298.38;5068622;28;19999;-81
2022/06/05 05:47:26;;;;;;;;;;;;;;;24.53;60.85;101293.91;5060479;28;19909;-81
2022/06/05 05:50:15;;;;;;;;;;;;;;;24.63;60.56;101292.16;5066318;28;19912;-81
2022/06/05 05:52:40;;;;;;;;;;;;;;;24.72;60.23;101293.97;5067251;28;19916;-82
2022/06/05 05:55:07;;;;;;;;;;;;;;;24.74;60.46;101301.13;5065149;28;19918;-82
2022/06/05 05:57:32;;;;;;;;;;;;;;;24.77;60.31;101286.88;5071905;28;19934;-81
2022/06/05 05:59:58;;;;;;;;;;;;;;;24.75;60.15;101291.31;5053241;28;20448;-82
2022/06/05 06:02:23;;;;;;;;;;;;;;;24.78;60.23;101291.31;5067187;28;19942;-82
2022/06/05 06:04:49;;;;;;;;;;;;;;;24.79;60.52;101287.78;5069007;28;19913;-81
2022/06/05 06:07:15;;;;;;;;;;;;;;;24.83;60.24;101288.66;5075767;28;19909;-82
2022/06/05 06:09:41;;;;;;;;;;;;;;;24.83;60.21;101278.91;5077466;28;19919;-81
2022/06/05 06:12:07;;;;;;;;;;;;;;;24.82;60.80;101282.44;5069309;28;19999;-82
2022/06/05 06:14:33;;;;;;;;;;;;;;;24.76;60.71;101280.66;5068772;28;19920;-81
2022/06/05 06:16:58;;;;;;;;;;;;;;;24.73;61.03;101275.28;5073878;28;20054;-81
2022/06/05 06:19:24;;;;;;;;;;;;;;;24.72;61.13;101276.19;5051407;28;19999;-82
2022/06/05 06:21:49;;;;;;;;;;;;;;;24.76;61.41;101275.31;5067590;28;19912;-82
2022/06/05 06:24:15;;;;;;;;;;;;;;;24.77;61.61;101279.75;5072658;28;20313;-82
2022/06/05 06:26:43;;;;;;;;;;;;;;;24.78;61.64;101268.16;5076867;28;19908;-81
2022/06/05 06:29:09;;;;;;;;;;;;;;;24.74;62.02;101262.81;5075930;28;19935;-82
2022/06/05 06:31:35;;;;;;;;;;;;;;;24.75;61.92;101252.16;5070326;28;20366;-85
2022/06/05 06:34:01;;;;;;;;;;;;;;;24.77;62.10;101255.72;5071801;28;19915;-82
2022/06/05 06:36:27;;;;;;;;;;;;;;;24.76;62.27;101261.97;5067625;28;19912;-82
2022/06/05 06:38:52;;;;;;;;;;;;;;;24.72;62.45;101262.84;5068913;28;19923;-82
2022/06/05 06:41:18;;;;;;;;;;;;;;;24.67;63.41;101261.03;5071805;28;20383;-82
2022/06/05 06:43:45;;;;;;;;;;;;;;;24.81;63.11;101258.38;5062129;28;19912;-81
2022/06/05 06:46:11;;;;;;;;;;;;;;;24.87;62.53;101259.31;5060482;28;19951;-82
2022/06/05 06:48:36;;;;;;;;;;;;;;;24.78;62.76;101253.94;5074208;28;19943;-82
2022/06/05 06:51:02;;;;;;;;;;;;;;;24.83;62.78;101262.88;5069443;28;19919;-82
2022/06/05 06:53:28;;;;;;;;;;;;;;;24.91;62.52;101260.19;5073563;28;19913;-82
2022/06/05 06:55:54;;;;;;;;;;;;;;;24.91;62.62;101260.19;5059815;28;19942;-82
2022/06/05 06:58:19;;;;;;;;;;;;;;;24.88;62.76;101255.75;5073361;28;20297;-82
2022/06/05 07:00:44;;;;;;;;;;;;;;;24.90;63.03;101250.41;5075504;28;20307;-83
2022/06/05 07:03:10;;;;;;;;;;;;;;;24.81;63.80;101255.72;5065845;28;20015;-82
2022/06/05 07:05:36;;;;;;;;;;;;;;;24.92;63.45;101254.88;5076746;28;19912;-82
2022/06/05 07:08:03;;;;;;;;;;;;;;;24.94;63.47;101246.88;5077148;28;19915;-80
2022/06/05 07:10:28;;;;;;;;;;;;;;;24.94;63.31;101247.75;5087247;28;20351;-81
2022/06/05 07:12:54;;;;;;;;;;;;;;;24.98;63.08;101252.22;5078542;28;20404;-81
2022/06/05 07:15:20;;;;;;;;;;;;;;;24.98;63.12;101245.97;5059045;28;19916;-80
2022/06/05 07:17:46;;;;;;;;;;;;;;;25.02;63.17;101249.53;5070752;28;20022;-81
2022/06/05 07:20:11;;;;;;;;;;;;;;;25.00;62.94;101252.22;5063449;28;19916;-82
2022/06/05 07:22:37;;;;;;;;;;;;;;;25.01;63.35;101247.75;5051961;28;20317;-81
2022/06/05 07:25:02;;;;;;;;;;;;;;;25.07;63.44;101248.66;5058672;28;19990;-82
2022/06/05 07:27:28;;;;;;;;;;;;;;;25.02;63.72;101242.44;5067567;28;19915;-81
2022/06/05 07:29:54;;;;;;;;;;;;;;;25.10;63.40;101240.63;5070351;28;19908;-82
2022/06/05 07:32:20;;;;;;;;;;;;;;;25.07;63.76;101248.66;5081649;28;19909;-81
2022/06/05 07:34:46;;;;;;;;;;;;;;;25.07;63.61;101254.00;5067047;28;19908;-81
2022/06/05 07:37:12;;;;;;;;;;;;;;;25.09;63.95;101246.00;5069965;28;19938;-81
2022/06/05 07:39:37;;;;;;;;;;;;;;;25.09;63.31;101237.97;5069817;28;19913;-81
2022/06/05 07:42:03;;;;;;;;;;;;;;;25.05;63.30;101242.41;5072675;28;20017;-81
2022/06/05 07:44:28;;;;;;;;;;;;;;;25.02;63.53;101244.19;5068900;28;19919;-81
2022/06/05 07:46:54;;;;;;;;;;;;;;;25.10;63.09;101245.97;5075295;28;19934;-81
2022/06/05 07:49:19;;;;;;;;;;;;;;;25.13;63.10;101251.34;5069866;28;19912;-80
2022/06/05 07:54:34;;;;;;;;;;;;;;;25.15;63.35;101240.66;5076369;28;19919;-81
2022/06/05 07:56:59;;;;;;;;;;;;;;;25.15;63.10;101241.56;5074830;28;20401;-81
2022/06/05 07:59:26;;;;;;;;;;;;;;;25.16;63.01;101247.78;5074390;28;19913;-81
2022/06/05 08:01:51;;;;;;;;;;;;;;;25.16;63.26;101243.31;5077633;28;19960;-81
2022/06/05 08:04:17;;;;;;;;;;;;;;;25.15;63.39;101246.91;5059101;28;19952;-79
2022/06/05 08:06:42;;;;;;;;;;;;;;;25.17;63.19;101247.78;5082096;28;20003;-80
2022/06/05 08:09:08;;;;;;;;;;;;;;;25.17;63.29;101249.59;5075478;28;19962;-80
2022/06/05 08:11:34;;;;;;;;;;;;;;;25.16;63.57;101243.31;5095534;28;19912;-81
2022/06/05 08:14:00;;;;;;;;;;;;;;;25.15;63.74;101246.91;5070378;28;19977;-81
2022/06/05 08:16:25;;;;;;;;;;;;;;;25.19;63.35;101247.81;5060053;28;20012;-81
2022/06/05 08:18:52;;;;;;;;;;;;;;;25.20;63.21;101241.59;5053060;28;19944;-80
2022/06/05 08:21:20;;;;;;;;;;;;;;;25.19;63.38;101240.66;5078707;28;20271;-80
2022/06/05 08:23:46;;;;;;;;;;;;;;;25.20;63.10;101241.59;5068082;28;19915;-81
2022/06/05 08:26:11;;;;;;;;;;;;;;;25.19;63.29;101246.00;5078389;28;19912;-79
2022/06/05 08:28:37;;;;;;;;;;;;;;;25.21;63.39;101239.81;5072378;28;19955;-80
2022/06/05 08:31:02;;;;;;;;;;;;;;;25.21;63.22;101235.38;5071689;28;19917;-80
2022/06/05 08:33:28;;;;;;;;;;;;;;;25.19;63.64;101232.66;5073097;28;19915;-80
2022/06/05 08:35:54;;;;;;;;;;;;;;;25.20;63.55;101241.59;5077051;28;19912;-81
2022/06/05 08:44:06;;;;;;;;;;;;;;;25.19;63.40;101243.34;5072525;28;19970;-80
2022/06/05 08:46:31;;;;;;;;;;;;;;;25.21;63.59;101238.03;5081174;28;19908;-80
2022/06/05 08:49:17;;;;;;;;;;;;;;;25.23;63.61;101235.34;5056871;28;19916;-81
2022/06/05 08:51:45;;;;;;;;;;;;;;;25.22;63.77;101236.25;5062280;28;19908;-80
2022/06/05 08:54:22;;;;;;;;;;;;;;;25.24;63.80;101239.81;5077553;28;20543;-81
2022/06/05 08:56:49;;;;;;;;;;;;;;;25.25;63.45;101233.56;5073156;28;19961;-81
2022/06/05 08:59:17;;;;;;;;;;;;;;;25.25;63.49;101236.25;5059576;28;19908;-81
2022/06/05 09:01:47;;;;;;;;;;;;;;;25.26;63.69;101238.03;5096397;28;20375;-81
2022/06/05 09:04:28;;;;;;;;;;;;;;;25.25;63.49;101242.50;5066940;28;20417;-80
2022/06/05 09:06:58;;;;;;;;;;;;;;;25.26;63.84;101230.03;5080725;28;20359;-82
2022/06/05 09:09:27;;;;;;;;;;;;;;;25.24;64.18;101234.47;5073671;28;20408;-81
2022/06/05 09:12:11;;;;;;;;;;;;;;;25.24;63.89;101243.38;5084272;28;19916;-79
2022/06/05 09:14:46;;;;;;;;;;;;;;;25.27;64.22;101234.47;5079106;28;19916;-81
2022/06/05 09:17:12;;;;;;;;;;;;;;;25.25;64.24;101228.22;5079931;28;19924;-81
2022/06/05 09:19:38;;;;;;;;;;;;;;;25.28;64.14;101228.25;5071746;28;19935;-82
2022/06/05 09:22:04;;;;;;;;;;;;;;;25.28;64.21;101226.44;5083667;28;20377;-80
2022/06/05 09:24:38;;;;;;;;;;;;;;;25.29;64.37;101225.53;5073114;28;19916;-82
2022/06/05 09:27:23;;;;;;;;;;;;;;;25.27;64.29;101219.31;5071341;28;19908;-81
2022/06/05 09:29:54;;;;;;;;;;;;;;;25.26;64.56;101224.69;5066168;28;19912;-81
2022/06/05 09:32:39;;;;;;;;;;;;;;;25.28;64.43;101225.56;5087648;28;19908;-81
2022/06/05 09:35:10;;;;;;;;;;;;;;;25.28;64.18;101215.75;5064270;28;19909;-82
2022/06/05 09:37:50;;;;;;;;;;;;;;;25.31;64.40;101214.84;5078588;28;19909;-80
2022/06/05 09:40:20;;;;;;;;;;;;;;;25.29;64.35;101217.53;5064011;28;19913;-82
2022/06/05 09:43:18;;;;;;;;;;;;;;;25.29;64.31;101208.63;5065517;28;19963;-82
2022/06/05 09:45:58;;;;;;;;;;;;;;;25.31;64.15;101213.06;5045084;28;20351;-81
2022/06/05 09:48:33;;;;;;;;;;;;;;;25.30;64.28;101205.97;5063551;28;20404;-82
2022/06/05 09:50:58;;;;;;;;;;;;;;;25.29;64.30;101200.59;5083809;28;19912;-80
2022/06/05 09:53:26;;;;;;;;;;;;;;;25.31;64.47;101204.16;5085047;28;20989;-82
2022/06/05 09:55:51;;;;;;;;;;;;;;;25.32;64.54;101204.19;5084869;28;19943;-81
2022/06/05 09:58:27;;;;;;;;;;;;;;;25.32;64.29;101195.28;5067127;28;20306;-80
2022/06/05 10:00:53;;;;;;;;;;;;;;;25.33;64.36;101197.94;5072823;28;19912;-81
2022/06/05 10:03:26;;;;;;;;;;;;;;;25.30;64.58;101200.63;5063471;28;19916;-80
2022/06/05 10:06:11;;;;;;;;;;;;;;;25.32;64.33;101193.47;5080369;28;19908;-80
2022/06/05 10:08:41;;;;;;;;;;;;;;;25.32;64.55;101198.84;5083235;28;19967;-81
2022/06/05 10:11:17;;;;;;;;;;;;;;;25.33;64.48;101197.94;5084368;28;19959;-82
2022/06/05 10:13:45;;;;;;;;;;;;;;;25.33;64.38;101189.91;5070738;28;19919;-81
2022/06/05 10:19:13;;;;;;;;;;;;;;;25.34;64.67;101210.41;5070957;28;19918;-82
2022/06/05 10:21:42;;;;;;;;;;;;;;;25.37;64.55;101198.81;5055766;28;19909;-82
2022/06/05 10:24:37;;;;;;;;;;;;;;;25.33;64.20;101203.28;5075003;28;19935;-81
2022/06/05 10:27:02;;;;;;;;;;;;;;;25.36;64.33;101199.72;5062536;28;20390;-80
2022/06/05 10:29:32;;;;;;;;;;;;;;;25.34;64.28;101193.50;5071824;28;19908;-80
2022/06/05 10:32:00;;;;;;;;;;;;;;;25.38;63.89;101189.94;5069477;28;20317;-81
2022/06/05 10:34:26;;;;;;;;;;;;;;;25.37;63.67;101190.81;5063152;28;20309;-81
2022/06/05 10:36:51;;;;;;;;;;;;;;;25.41;64.09;101202.41;5065356;28;19916;-80
2022/06/05 10:39:28;;;;;;;;;;;;;;;25.41;64.06;101205.06;5051660;28;19999;-81
2022/06/05 10:41:53;;;;;;;;;;;;;;;25.36;63.98;101203.28;5067076;28;19916;-80
2022/06/05 10:44:37;;;;;;;;;;;;;;;25.37;64.30;101199.72;5051308;28;19912;-81
2022/06/05 10:47:17;;;;;;;;;;;;;;;25.39;63.94;101199.72;5051139;28;19908;-80
2022/06/05 10:49:54;;;;;;;;;;;;;;;25.38;63.86;101196.16;5052549;28;19915;-81
2022/06/05 10:52:26;;;;;;;;;;;;;;;25.39;63.91;101191.69;5070177;28;19909;-81
2022/06/05 10:54:56;;;;;;;;;;;;;;;25.42;64.15;101199.72;5067621;28;19909;-81
2022/06/05 10:57:27;;;;;;;;;;;;;;;25.38;63.42;101205.97;5069827;28;20377;-81
2022/06/05 10:59:55;;;;;;;;;;;;;;;25.39;63.64;101200.59;5049656;28;19909;-81
2022/06/05 11:02:25;;;;;;;;;;;;;;;25.41;64.10;101202.41;5080479;28;19962;-80
2022/06/05 11:04:52;;;;;;;;;;;;;;;25.43;63.77;101208.63;5065653;28;19966;-80
2022/06/05 11:07:30;;;;;;;;;;;;;;;25.39;64.16;101197.94;5071418;28;20305;-81
2022/06/05 11:09:55;;;;;;;;;;;;;;;25.41;64.28;101197.94;5076250;28;20320;-82
2022/06/05 11:15:29;;;;;;;;;;;;;;;25.41;64.20;101189.91;5073020;28;19932;-83
2022/06/05 11:18:03;;;;;;;;;;;;;;;25.44;63.62;101183.66;5077644;28;19912;-82
2022/06/05 11:20:29;;;;;;;;;;;;;;;25.42;63.75;101177.44;5088576;28;19918;-83
2022/06/05 11:22:57;;;;;;;;;;;;;;;25.42;63.68;101173.00;5060278;28;20315;-83
2022/06/05 11:25:25;;;;;;;;;;;;;;;25.45;63.40;101172.09;5080552;28;20373;-82
2022/06/05 11:28:00;;;;;;;;;;;;;;;25.44;63.84;101171.19;5072093;28;19960;-82
2022/06/05 11:30:44;;;;;;;;;;;;;;;25.44;63.76;101175.66;5079280;28;20016;-82
2022/06/05 11:33:14;;;;;;;;;;;;;;;25.43;64.15;101182.78;5075984;28;19920;-83
2022/06/05 11:35:49;;;;;;;;;;;;;;;25.47;64.11;101173.00;5081371;28;20416;-83
2022/06/05 11:38:29;;;;;;;;;;;;;;;25.47;64.11;101170.31;5065659;28;19916;-81
2022/06/05 11:40:55;;;;;;;;;;;;;;;25.45;64.19;101162.28;5079695;28;20008;-81
2022/06/05 11:43:31;;;;;;;;;;;;;;;25.44;64.19;101163.16;5067527;28;19999;-81
2022/06/05 11:46:11;;;;;;;;;;;;;;;25.62;62.64;101156.03;5071533;28;19913;-82
2022/06/05 11:48:42;;;;;;;;;;;;;;;25.78;61.86;101137.25;5066635;28;19916;-83
2022/06/05 11:51:08;;;;;;;;;;;;;;;25.62;62.61;101145.31;5067149;28;19943;-84
2022/06/05 11:53:36;;;;;;;;;;;;;;;25.62;62.78;101138.19;5069366;28;19917;-84
2022/06/05 11:56:20;;;;;;;;;;;;;;;25.49;63.49;101140.00;5074325;28;19955;-84
2022/06/05 11:58:46;;;;;;;;;;;;;;;25.31;64.55;101132.88;5056372;28;19987;-84
2022/06/05 12:01:13;;;;;;;;;;;;;;;25.47;63.81;101127.53;5066685;28;20024;-85
2022/06/05 12:03:46;;;;;;;;;;;;;;;25.87;62.60;101132.78;5072640;28;19950;-85
2022/06/05 12:06:15;;;;;;;;;;;;;;;25.94;60.84;101135.44;5074011;28;20012;-85
2022/06/05 12:08:44;;;;;;;;;;;;;;;25.88;61.53;101131.88;5071662;28;19951;-85
2022/06/05 12:11:18;;;;;;;;;;;;;;;25.89;60.58;101131.91;5057689;28;19959;-86
2022/06/05 12:13:52;;;;;;;;;;;;;;;25.77;60.56;101121.19;5064758;28;20012;-82
2022/06/05 12:16:22;;;;;;;;;;;;;;;25.88;60.17;101118.50;5071779;28;19916;-83
2022/06/05 12:18:57;;;;;;;;;;;;;;;25.92;60.08;101128.31;5084842;28;19975;-83
2022/06/05 12:21:33;;;;;;;;;;;;;;;25.66;60.61;101128.38;5087080;28;19916;-84
2022/06/05 12:24:18;;;;;;;;;;;;;;;25.67;60.79;101127.47;5073674;28;19958;-84
2022/06/05 12:26:45;;;;;;;;;;;;;;;25.70;60.46;101124.81;5069952;28;19912;-82
2022/06/05 12:29:11;;;;;;;;;;;;;;;25.58;61.30;101139.09;5073453;28;19956;-83
2022/06/05 12:31:58;;;;;;;;;;;;;;;25.60;61.69;101148.88;5070428;28;19970;-81
2022/06/05 12:34:30;;;;;;;;;;;;;;;25.55;61.42;101152.47;5071132;28;19920;-84
2022/06/05 12:37:01;;;;;;;;;;;;;;;25.90;59.86;101157.75;5039555;28;19909;-81
2022/06/05 12:39:34;;;;;;;;;;;;;;;26.00;59.20;101172.91;5068525;28;19975;-80
2022/06/05 12:41:59;;;;;;;;;;;;;;;25.86;59.64;101181.81;5068822;28;19920;-81
2022/06/05 12:44:30;;;;;;;;;;;;;;;25.90;59.26;101184.50;5070446;28;19913;-82
2022/06/05 12:47:06;;;;;;;;;;;;;;;25.55;60.98;101174.75;5079782;28;19942;-81
2022/06/05 12:49:50;;;;;;;;;;;;;;;25.47;60.94;101168.53;5070096;28;19920;-81